sensor_id;sensor_type;location;lat;lon;timestamp;P1;durP1;ratioP1;P2;durP2;ratioP2
68942;SDS011;60852;52.190;4.422;2023-05-16T00:00:02;7.15;;;4.65;;
68942;SDS011;60852;52.190;4.422;2023-05-16T00:02:36;6.92;;;4.52;;
68942;SDS011;60852;52.190;4.422;2023-05-16T00:05:03;7.29;;;4.78;;
68942;SDS011;60852;52.190;4.422;2023-05-16T00:07:31;7.30;;;4.78;;
68942;SDS011;60852;52.190;4.422;2023-05-16T00:09:58;7.45;;;4.86;;
68942;SDS011;60852;52.190;4.422;2023-05-16T00:12:23;7.97;;;5.08;;
68942;SDS011;60852;52.190;4.422;2023-05-16T00:14:49;8.29;;;5.30;;
68942;SDS011;60852;52.190;4.422;2023-05-16T00:17:17;7.81;;;5.02;;
68942;SDS011;60852;52.190;4.422;2023-05-16T00:19:44;8.38;;;5.34;;
68942;SDS011;60852;52.190;4.422;2023-05-16T00:22:13;8.09;;;5.18;;
68942;SDS011;60852;52.190;4.422;2023-05-16T00:24:39;8.25;;;5.20;;
68942;SDS011;60852;52.190;4.422;2023-05-16T00:27:05;7.66;;;4.90;;
68942;SDS011;60852;52.190;4.422;2023-05-16T00:29:32;8.10;;;5.12;;
68942;SDS011;60852;52.190;4.422;2023-05-16T00:31:58;7.95;;;5.04;;
68942;SDS011;60852;52.190;4.422;2023-05-16T00:34:24;7.10;;;4.55;;
68942;SDS011;60852;52.190;4.422;2023-05-16T00:36:49;8.18;;;5.16;;
68942;SDS011;60852;52.190;4.422;2023-05-16T00:39:15;8.77;;;5.47;;
68942;SDS011;60852;52.190;4.422;2023-05-16T00:41:41;7.79;;;4.83;;
68942;SDS011;60852;52.190;4.422;2023-05-16T00:44:06;7.45;;;4.65;;
68942;SDS011;60852;52.190;4.422;2023-05-16T00:46:32;7.21;;;4.60;;
68942;SDS011;60852;52.190;4.422;2023-05-16T00:48:58;6.70;;;4.28;;
68942;SDS011;60852;52.190;4.422;2023-05-16T00:51:24;7.05;;;4.46;;
68942;SDS011;60852;52.190;4.422;2023-05-16T00:53:50;6.84;;;4.32;;
68942;SDS011;60852;52.190;4.422;2023-05-16T00:56:16;7.68;;;4.83;;
68942;SDS011;60852;52.190;4.422;2023-05-16T00:58:42;6.73;;;4.27;;
68942;SDS011;60852;52.190;4.422;2023-05-16T01:01:07;7.26;;;4.55;;
68942;SDS011;60852;52.190;4.422;2023-05-16T01:03:33;7.49;;;4.64;;
68942;SDS011;60852;52.190;4.422;2023-05-16T01:05:59;7.97;;;4.95;;
68942;SDS011;60852;52.190;4.422;2023-05-16T01:08:24;7.48;;;4.66;;
68942;SDS011;60852;52.190;4.422;2023-05-16T01:10:58;6.95;;;4.34;;
68942;SDS011;60852;52.190;4.422;2023-05-16T01:13:33;7.46;;;4.74;;
68942;SDS011;60852;52.190;4.422;2023-05-16T01:28:00;7.79;;;4.78;;
68942;SDS011;60852;52.190;4.422;2023-05-16T01:30:31;8.15;;;5.01;;
68942;SDS011;60852;52.190;4.422;2023-05-16T01:32:59;8.43;;;5.14;;
68942;SDS011;60852;52.190;4.422;2023-05-16T01:35:24;7.34;;;4.60;;
68942;SDS011;60852;52.190;4.422;2023-05-16T01:37:58;6.40;;;4.03;;
68942;SDS011;60852;52.190;4.422;2023-05-16T01:40:40;6.28;;;4.01;;
68942;SDS011;60852;52.190;4.422;2023-05-16T01:43:16;5.63;;;3.58;;
68942;SDS011;60852;52.190;4.422;2023-05-16T01:45:50;6.73;;;4.17;;
68942;SDS011;60852;52.190;4.422;2023-05-16T01:48:26;6.86;;;4.26;;
68942;SDS011;60852;52.190;4.422;2023-05-16T01:50:59;7.29;;;4.50;;
68942;SDS011;60852;52.190;4.422;2023-05-16T01:53:28;8.12;;;4.98;;
68942;SDS011;60852;52.190;4.422;2023-05-16T01:56:01;7.14;;;4.43;;
68942;SDS011;60852;52.190;4.422;2023-05-16T01:58:29;6.43;;;4.05;;
68942;SDS011;60852;52.190;4.422;2023-05-16T02:01:01;7.06;;;4.48;;
68942;SDS011;60852;52.190;4.422;2023-05-16T02:03:29;7.26;;;4.68;;
68942;SDS011;60852;52.190;4.422;2023-05-16T02:05:58;6.60;;;4.25;;
68942;SDS011;60852;52.190;4.422;2023-05-16T02:08:24;6.50;;;4.14;;
68942;SDS011;60852;52.190;4.422;2023-05-16T02:10:50;6.88;;;4.35;;
68942;SDS011;60852;52.190;4.422;2023-05-16T02:13:16;6.98;;;4.47;;
68942;SDS011;60852;52.190;4.422;2023-05-16T02:15:42;6.68;;;4.23;;
68942;SDS011;60852;52.190;4.422;2023-05-16T02:18:08;7.26;;;4.56;;
68942;SDS011;60852;52.190;4.422;2023-05-16T02:20:34;7.72;;;4.84;;
68942;SDS011;60852;52.190;4.422;2023-05-16T02:22:59;8.14;;;5.13;;
68942;SDS011;60852;52.190;4.422;2023-05-16T02:25:25;7.91;;;4.99;;
68942;SDS011;60852;52.190;4.422;2023-05-16T02:27:51;7.48;;;4.80;;
68942;SDS011;60852;52.190;4.422;2023-05-16T02:30:16;6.75;;;4.37;;
68942;SDS011;60852;52.190;4.422;2023-05-16T02:32:42;6.81;;;4.38;;
68942;SDS011;60852;52.190;4.422;2023-05-16T02:35:10;6.80;;;4.31;;
68942;SDS011;60852;52.190;4.422;2023-05-16T02:37:36;7.34;;;4.62;;
68942;SDS011;60852;52.190;4.422;2023-05-16T02:40:02;7.36;;;4.63;;
68942;SDS011;60852;52.190;4.422;2023-05-16T02:42:29;6.64;;;4.21;;
68942;SDS011;60852;52.190;4.422;2023-05-16T02:44:56;6.40;;;4.09;;
68942;SDS011;60852;52.190;4.422;2023-05-16T02:47:22;5.84;;;3.77;;
68942;SDS011;60852;52.190;4.422;2023-05-16T02:49:47;6.80;;;4.34;;
68942;SDS011;60852;52.190;4.422;2023-05-16T02:52:13;7.36;;;4.63;;
68942;SDS011;60852;52.190;4.422;2023-05-16T02:54:38;7.76;;;4.90;;
68942;SDS011;60852;52.190;4.422;2023-05-16T02:57:04;7.11;;;4.55;;
68942;SDS011;60852;52.190;4.422;2023-05-16T02:59:29;7.44;;;4.67;;
68942;SDS011;60852;52.190;4.422;2023-05-16T03:01:55;7.12;;;4.49;;
68942;SDS011;60852;52.190;4.422;2023-05-16T03:04:20;6.48;;;4.10;;
68942;SDS011;60852;52.190;4.422;2023-05-16T03:06:46;6.76;;;4.31;;
68942;SDS011;60852;52.190;4.422;2023-05-16T03:09:12;6.44;;;4.12;;
68942;SDS011;60852;52.190;4.422;2023-05-16T03:11:37;6.71;;;4.31;;
68942;SDS011;60852;52.190;4.422;2023-05-16T03:14:03;6.51;;;4.19;;
68942;SDS011;60852;52.190;4.422;2023-05-16T03:16:28;6.70;;;4.30;;
68942;SDS011;60852;52.190;4.422;2023-05-16T03:18:54;7.33;;;4.69;;
68942;SDS011;60852;52.190;4.422;2023-05-16T03:21:20;6.85;;;4.37;;
68942;SDS011;60852;52.190;4.422;2023-05-16T03:23:45;6.93;;;4.42;;
68942;SDS011;60852;52.190;4.422;2023-05-16T03:26:11;6.19;;;3.91;;
68942;SDS011;60852;52.190;4.422;2023-05-16T03:28:36;6.14;;;3.86;;
68942;SDS011;60852;52.190;4.422;2023-05-16T03:31:01;6.82;;;4.32;;
68942;SDS011;60852;52.190;4.422;2023-05-16T03:33:27;6.70;;;4.23;;
68942;SDS011;60852;52.190;4.422;2023-05-16T03:35:52;5.99;;;3.83;;
68942;SDS011;60852;52.190;4.422;2023-05-16T03:38:18;6.54;;;4.20;;
68942;SDS011;60852;52.190;4.422;2023-05-16T03:40:43;5.96;;;3.86;;
68942;SDS011;60852;52.190;4.422;2023-05-16T03:43:09;6.16;;;3.96;;
68942;SDS011;60852;52.190;4.422;2023-05-16T03:45:35;6.31;;;4.01;;
68942;SDS011;60852;52.190;4.422;2023-05-16T03:48:00;6.18;;;3.90;;
68942;SDS011;60852;52.190;4.422;2023-05-16T03:50:25;6.69;;;4.22;;
68942;SDS011;60852;52.190;4.422;2023-05-16T03:52:51;5.91;;;3.70;;
68942;SDS011;60852;52.190;4.422;2023-05-16T03:55:18;6.37;;;3.97;;
68942;SDS011;60852;52.190;4.422;2023-05-16T03:57:44;6.79;;;4.24;;
68942;SDS011;60852;52.190;4.422;2023-05-16T04:00:10;6.02;;;3.76;;
68942;SDS011;60852;52.190;4.422;2023-05-16T04:02:38;5.62;;;3.54;;
68942;SDS011;60852;52.190;4.422;2023-05-16T04:05:06;4.65;;;3.01;;
68942;SDS011;60852;52.190;4.422;2023-05-16T04:07:32;5.05;;;3.22;;
68942;SDS011;60852;52.190;4.422;2023-05-16T04:09:58;5.99;;;3.86;;
68942;SDS011;60852;52.190;4.422;2023-05-16T04:12:23;4.78;;;3.09;;
68942;SDS011;60852;52.190;4.422;2023-05-16T04:14:49;4.96;;;3.18;;
68942;SDS011;60852;52.190;4.422;2023-05-16T04:17:14;5.48;;;3.43;;
68942;SDS011;60852;52.190;4.422;2023-05-16T04:19:39;5.98;;;3.70;;
68942;SDS011;60852;52.190;4.422;2023-05-16T04:22:05;6.36;;;3.93;;
68942;SDS011;60852;52.190;4.422;2023-05-16T04:24:31;5.95;;;3.69;;
68942;SDS011;60852;52.190;4.422;2023-05-16T04:26:57;6.81;;;4.25;;
68942;SDS011;60852;52.190;4.422;2023-05-16T04:29:23;6.50;;;4.12;;
68942;SDS011;60852;52.190;4.422;2023-05-16T04:31:48;5.89;;;3.73;;
68942;SDS011;60852;52.190;4.422;2023-05-16T04:34:13;6.32;;;4.02;;
68942;SDS011;60852;52.190;4.422;2023-05-16T04:36:40;6.26;;;3.95;;
68942;SDS011;60852;52.190;4.422;2023-05-16T04:39:06;5.89;;;3.71;;
68942;SDS011;60852;52.190;4.422;2023-05-16T04:41:32;5.83;;;3.70;;
68942;SDS011;60852;52.190;4.422;2023-05-16T04:43:59;6.09;;;3.82;;
68942;SDS011;60852;52.190;4.422;2023-05-16T04:46:26;5.43;;;3.42;;
68942;SDS011;60852;52.190;4.422;2023-05-16T04:48:52;5.23;;;3.30;;
68942;SDS011;60852;52.190;4.422;2023-05-16T04:51:17;5.21;;;3.26;;
68942;SDS011;60852;52.190;4.422;2023-05-16T04:53:42;5.43;;;3.39;;
68942;SDS011;60852;52.190;4.422;2023-05-16T04:56:08;6.35;;;3.97;;
68942;SDS011;60852;52.190;4.422;2023-05-16T04:58:33;5.53;;;3.53;;
68942;SDS011;60852;52.190;4.422;2023-05-16T05:00:59;5.54;;;3.55;;
68942;SDS011;60852;52.190;4.422;2023-05-16T05:03:24;5.33;;;3.35;;
68942;SDS011;60852;52.190;4.422;2023-05-16T05:05:50;5.84;;;3.69;;
68942;SDS011;60852;52.190;4.422;2023-05-16T05:08:16;6.51;;;4.07;;
68942;SDS011;60852;52.190;4.422;2023-05-16T05:10:42;5.73;;;3.57;;
68942;SDS011;60852;52.190;4.422;2023-05-16T05:13:09;5.78;;;3.63;;
68942;SDS011;60852;52.190;4.422;2023-05-16T05:15:35;4.91;;;3.13;;
68942;SDS011;60852;52.190;4.422;2023-05-16T05:18:00;5.05;;;3.28;;
68942;SDS011;60852;52.190;4.422;2023-05-16T05:20:26;5.27;;;3.48;;
68942;SDS011;60852;52.190;4.422;2023-05-16T05:22:51;5.20;;;3.41;;
68942;SDS011;60852;52.190;4.422;2023-05-16T05:25:17;5.41;;;3.51;;
68942;SDS011;60852;52.190;4.422;2023-05-16T05:27:42;5.02;;;3.31;;
68942;SDS011;60852;52.190;4.422;2023-05-16T05:30:08;4.69;;;3.10;;
68942;SDS011;60852;52.190;4.422;2023-05-16T05:32:33;5.17;;;3.44;;
68942;SDS011;60852;52.190;4.422;2023-05-16T05:34:59;4.90;;;3.30;;
68942;SDS011;60852;52.190;4.422;2023-05-16T05:37:25;4.96;;;3.28;;
68942;SDS011;60852;52.190;4.422;2023-05-16T05:39:51;4.87;;;3.21;;
68942;SDS011;60852;52.190;4.422;2023-05-16T05:42:16;5.61;;;3.69;;
68942;SDS011;60852;52.190;4.422;2023-05-16T05:44:42;5.42;;;3.51;;
68942;SDS011;60852;52.190;4.422;2023-05-16T05:47:07;5.16;;;3.38;;
68942;SDS011;60852;52.190;4.422;2023-05-16T05:49:33;5.00;;;3.30;;
68942;SDS011;60852;52.190;4.422;2023-05-16T05:52:00;4.37;;;2.90;;
68942;SDS011;60852;52.190;4.422;2023-05-16T05:54:26;4.42;;;2.91;;
68942;SDS011;60852;52.190;4.422;2023-05-16T05:56:51;4.62;;;3.04;;
68942;SDS011;60852;52.190;4.422;2023-05-16T05:59:17;4.11;;;2.73;;
68942;SDS011;60852;52.190;4.422;2023-05-16T06:01:42;4.03;;;2.69;;
68942;SDS011;60852;52.190;4.422;2023-05-16T06:04:08;4.61;;;3.05;;
68942;SDS011;60852;52.190;4.422;2023-05-16T06:06:34;4.63;;;3.06;;
68942;SDS011;60852;52.190;4.422;2023-05-16T06:09:00;4.32;;;2.92;;
68942;SDS011;60852;52.190;4.422;2023-05-16T06:11:25;3.94;;;2.72;;
68942;SDS011;60852;52.190;4.422;2023-05-16T06:13:51;3.98;;;2.73;;
68942;SDS011;60852;52.190;4.422;2023-05-16T06:16:17;4.79;;;3.24;;
68942;SDS011;60852;52.190;4.422;2023-05-16T06:18:42;4.21;;;2.85;;
68942;SDS011;60852;52.190;4.422;2023-05-16T06:21:08;4.62;;;3.09;;
68942;SDS011;60852;52.190;4.422;2023-05-16T06:23:34;5.07;;;3.39;;
68942;SDS011;60852;52.190;4.422;2023-05-16T06:26:00;4.24;;;2.90;;
68942;SDS011;60852;52.190;4.422;2023-05-16T06:28:27;4.23;;;2.94;;
68942;SDS011;60852;52.190;4.422;2023-05-16T06:30:53;4.11;;;2.86;;
68942;SDS011;60852;52.190;4.422;2023-05-16T06:33:19;4.19;;;2.85;;
68942;SDS011;60852;52.190;4.422;2023-05-16T06:35:45;3.84;;;2.59;;
68942;SDS011;60852;52.190;4.422;2023-05-16T06:38:12;3.85;;;2.63;;
68942;SDS011;60852;52.190;4.422;2023-05-16T06:40:38;4.35;;;2.93;;
68942;SDS011;60852;52.190;4.422;2023-05-16T06:43:04;4.96;;;3.29;;
68942;SDS011;60852;52.190;4.422;2023-05-16T06:45:30;4.59;;;3.08;;
68942;SDS011;60852;52.190;4.422;2023-05-16T06:47:56;4.91;;;3.30;;
68942;SDS011;60852;52.190;4.422;2023-05-16T06:50:21;4.38;;;2.96;;
68942;SDS011;60852;52.190;4.422;2023-05-16T06:52:47;4.30;;;2.90;;
68942;SDS011;60852;52.190;4.422;2023-05-16T06:55:13;3.66;;;2.50;;
68942;SDS011;60852;52.190;4.422;2023-05-16T06:57:38;4.46;;;3.02;;
68942;SDS011;60852;52.190;4.422;2023-05-16T07:00:04;4.08;;;2.75;;
68942;SDS011;60852;52.190;4.422;2023-05-16T07:02:31;4.48;;;3.00;;
68942;SDS011;60852;52.190;4.422;2023-05-16T07:04:56;4.86;;;3.29;;
68942;SDS011;60852;52.190;4.422;2023-05-16T07:07:22;4.04;;;2.74;;
68942;SDS011;60852;52.190;4.422;2023-05-16T07:09:47;4.67;;;3.12;;
68942;SDS011;60852;52.190;4.422;2023-05-16T07:12:13;4.51;;;2.99;;
68942;SDS011;60852;52.190;4.422;2023-05-16T07:14:38;4.18;;;2.74;;
68942;SDS011;60852;52.190;4.422;2023-05-16T07:17:04;5.11;;;3.29;;
68942;SDS011;60852;52.190;4.422;2023-05-16T07:19:30;4.85;;;3.12;;
68942;SDS011;60852;52.190;4.422;2023-05-16T07:21:56;4.75;;;3.05;;
68942;SDS011;60852;52.190;4.422;2023-05-16T07:24:21;4.65;;;2.97;;
68942;SDS011;60852;52.190;4.422;2023-05-16T07:26:47;4.35;;;2.76;;
68942;SDS011;60852;52.190;4.422;2023-05-16T07:29:13;4.32;;;2.73;;
68942;SDS011;60852;52.190;4.422;2023-05-16T07:31:38;4.40;;;2.80;;
68942;SDS011;60852;52.190;4.422;2023-05-16T07:34:04;4.91;;;3.17;;
68942;SDS011;60852;52.190;4.422;2023-05-16T07:36:29;4.64;;;3.01;;
68942;SDS011;60852;52.190;4.422;2023-05-16T07:38:55;4.39;;;2.83;;
68942;SDS011;60852;52.190;4.422;2023-05-16T07:41:20;4.36;;;2.81;;
68942;SDS011;60852;52.190;4.422;2023-05-16T07:43:46;4.73;;;3.08;;
68942;SDS011;60852;52.190;4.422;2023-05-16T07:46:11;3.97;;;2.57;;
68942;SDS011;60852;52.190;4.422;2023-05-16T07:48:38;4.54;;;2.92;;
68942;SDS011;60852;52.190;4.422;2023-05-16T07:51:03;5.17;;;3.33;;
68942;SDS011;60852;52.190;4.422;2023-05-16T07:53:29;3.77;;;2.41;;
68942;SDS011;60852;52.190;4.422;2023-05-16T07:55:54;4.91;;;3.17;;
68942;SDS011;60852;52.190;4.422;2023-05-16T07:58:20;4.29;;;2.77;;
68942;SDS011;60852;52.190;4.422;2023-05-16T08:00:46;4.80;;;3.08;;
68942;SDS011;60852;52.190;4.422;2023-05-16T08:03:12;4.61;;;2.96;;
68942;SDS011;60852;52.190;4.422;2023-05-16T08:05:37;4.24;;;2.72;;
68942;SDS011;60852;52.190;4.422;2023-05-16T08:08:03;4.64;;;2.98;;
68942;SDS011;60852;52.190;4.422;2023-05-16T08:10:29;4.83;;;3.09;;
68942;SDS011;60852;52.190;4.422;2023-05-16T08:12:55;4.26;;;2.75;;
68942;SDS011;60852;52.190;4.422;2023-05-16T08:15:20;3.99;;;2.62;;
68942;SDS011;60852;52.190;4.422;2023-05-16T08:17:46;4.24;;;2.79;;
68942;SDS011;60852;52.190;4.422;2023-05-16T08:20:12;4.05;;;2.63;;
68942;SDS011;60852;52.190;4.422;2023-05-16T08:22:37;3.70;;;2.41;;
68942;SDS011;60852;52.190;4.422;2023-05-16T08:25:03;4.05;;;2.61;;
68942;SDS011;60852;52.190;4.422;2023-05-16T08:27:29;4.15;;;2.69;;
68942;SDS011;60852;52.190;4.422;2023-05-16T08:29:54;3.85;;;2.51;;
68942;SDS011;60852;52.190;4.422;2023-05-16T08:32:20;4.08;;;2.67;;
68942;SDS011;60852;52.190;4.422;2023-05-16T08:34:46;4.35;;;2.81;;
68942;SDS011;60852;52.190;4.422;2023-05-16T08:37:11;4.37;;;2.88;;
68942;SDS011;60852;52.190;4.422;2023-05-16T08:39:37;3.79;;;2.58;;
68942;SDS011;60852;52.190;4.422;2023-05-16T08:42:03;3.52;;;2.44;;
68942;SDS011;60852;52.190;4.422;2023-05-16T08:44:29;3.84;;;2.66;;
68942;SDS011;60852;52.190;4.422;2023-05-16T08:46:55;3.77;;;2.59;;
68942;SDS011;60852;52.190;4.422;2023-05-16T08:49:21;4.15;;;2.82;;
68942;SDS011;60852;52.190;4.422;2023-05-16T08:51:51;3.91;;;2.62;;
68942;SDS011;60852;52.190;4.422;2023-05-16T08:54:22;3.65;;;2.45;;
68942;SDS011;60852;52.190;4.422;2023-05-16T08:56:48;3.64;;;2.45;;
68942;SDS011;60852;52.190;4.422;2023-05-16T08:59:15;3.39;;;2.32;;
68942;SDS011;60852;52.190;4.422;2023-05-16T09:01:42;3.88;;;2.70;;
68942;SDS011;60852;52.190;4.422;2023-05-16T09:04:08;3.48;;;2.43;;
68942;SDS011;60852;52.190;4.422;2023-05-16T09:06:34;3.24;;;2.27;;
68942;SDS011;60852;52.190;4.422;2023-05-16T09:09:00;3.35;;;2.34;;
68942;SDS011;60852;52.190;4.422;2023-05-16T09:11:27;3.34;;;2.31;;
68942;SDS011;60852;52.190;4.422;2023-05-16T09:13:52;3.47;;;2.37;;
68942;SDS011;60852;52.190;4.422;2023-05-16T09:16:19;3.34;;;2.30;;
68942;SDS011;60852;52.190;4.422;2023-05-16T09:18:46;3.58;;;2.45;;
68942;SDS011;60852;52.190;4.422;2023-05-16T09:21:28;3.64;;;2.42;;
68942;SDS011;60852;52.190;4.422;2023-05-16T09:24:04;3.80;;;2.56;;
68942;SDS011;60852;52.190;4.422;2023-05-16T09:26:31;3.99;;;2.68;;
68942;SDS011;60852;52.190;4.422;2023-05-16T09:28:57;3.98;;;2.72;;
68942;SDS011;60852;52.190;4.422;2023-05-16T09:31:23;3.92;;;2.70;;
68942;SDS011;60852;52.190;4.422;2023-05-16T09:33:51;3.26;;;2.31;;
68942;SDS011;60852;52.190;4.422;2023-05-16T09:36:17;3.23;;;2.29;;
68942;SDS011;60852;52.190;4.422;2023-05-16T09:38:43;3.33;;;2.35;;
68942;SDS011;60852;52.190;4.422;2023-05-16T09:41:10;3.34;;;2.35;;
68942;SDS011;60852;52.190;4.422;2023-05-16T09:43:37;3.41;;;2.33;;
68942;SDS011;60852;52.190;4.422;2023-05-16T09:46:04;3.64;;;2.46;;
68942;SDS011;60852;52.190;4.422;2023-05-16T09:48:31;3.49;;;2.36;;
68942;SDS011;60852;52.190;4.422;2023-05-16T09:50:56;3.70;;;2.53;;
68942;SDS011;60852;52.190;4.422;2023-05-16T09:53:28;3.67;;;2.52;;
68942;SDS011;60852;52.190;4.422;2023-05-16T09:55:59;3.59;;;2.46;;
68942;SDS011;60852;52.190;4.422;2023-05-16T09:58:30;3.87;;;2.58;;
68942;SDS011;60852;52.190;4.422;2023-05-16T10:00:56;3.73;;;2.45;;
68942;SDS011;60852;52.190;4.422;2023-05-16T10:03:24;3.83;;;2.53;;
68942;SDS011;60852;52.190;4.422;2023-05-16T10:05:50;3.72;;;2.46;;
68942;SDS011;60852;52.190;4.422;2023-05-16T10:08:18;4.18;;;2.81;;
68942;SDS011;60852;52.190;4.422;2023-05-16T10:10:45;3.53;;;2.43;;
68942;SDS011;60852;52.190;4.422;2023-05-16T10:13:15;2.95;;;2.02;;
68942;SDS011;60852;52.190;4.422;2023-05-16T10:15:45;2.96;;;2.02;;
68942;SDS011;60852;52.190;4.422;2023-05-16T10:18:12;4.81;;;3.31;;
68942;SDS011;60852;52.190;4.422;2023-05-16T10:20:40;3.17;;;2.21;;
68942;SDS011;60852;52.190;4.422;2023-05-16T10:23:08;4.35;;;3.17;;
68942;SDS011;60852;52.190;4.422;2023-05-16T10:25:40;3.21;;;2.39;;
68942;SDS011;60852;52.190;4.422;2023-05-16T10:28:07;3.04;;;2.17;;
68942;SDS011;60852;52.190;4.422;2023-05-16T10:30:33;3.76;;;2.53;;
68942;SDS011;60852;52.190;4.422;2023-05-16T10:33:00;4.11;;;2.71;;
68942;SDS011;60852;52.190;4.422;2023-05-16T10:35:28;3.79;;;2.55;;
68942;SDS011;60852;52.190;4.422;2023-05-16T10:37:54;3.63;;;2.48;;
68942;SDS011;60852;52.190;4.422;2023-05-16T10:40:21;3.20;;;2.17;;
68942;SDS011;60852;52.190;4.422;2023-05-16T10:42:54;3.70;;;2.55;;
68942;SDS011;60852;52.190;4.422;2023-05-16T10:45:20;3.20;;;2.20;;
68942;SDS011;60852;52.190;4.422;2023-05-16T10:47:50;3.54;;;2.42;;
68942;SDS011;60852;52.190;4.422;2023-05-16T10:53:15;2.98;;;2.05;;
68942;SDS011;60852;52.190;4.422;2023-05-16T10:55:44;3.54;;;2.43;;
68942;SDS011;60852;52.190;4.422;2023-05-16T10:58:21;3.52;;;2.40;;
68942;SDS011;60852;52.190;4.422;2023-05-16T11:00:48;3.69;;;2.51;;
68942;SDS011;60852;52.190;4.422;2023-05-16T11:03:23;3.61;;;2.43;;
68942;SDS011;60852;52.190;4.422;2023-05-16T11:05:52;3.48;;;2.38;;
68942;SDS011;60852;52.190;4.422;2023-05-16T11:08:23;3.43;;;2.33;;
68942;SDS011;60852;52.190;4.422;2023-05-16T11:10:49;3.51;;;2.40;;
68942;SDS011;60852;52.190;4.422;2023-05-16T11:13:14;4.11;;;2.74;;
68942;SDS011;60852;52.190;4.422;2023-05-16T11:15:48;4.40;;;2.91;;
68942;SDS011;60852;52.190;4.422;2023-05-16T11:18:15;4.83;;;3.19;;
68942;SDS011;60852;52.190;4.422;2023-05-16T11:20:41;3.86;;;2.57;;
68942;SDS011;60852;52.190;4.422;2023-05-16T11:23:16;4.01;;;2.70;;
68942;SDS011;60852;52.190;4.422;2023-05-16T11:25:43;3.55;;;2.48;;
68942;SDS011;60852;52.190;4.422;2023-05-16T11:28:11;3.62;;;2.57;;
68942;SDS011;60852;52.190;4.422;2023-05-16T11:30:44;2.95;;;2.06;;
68942;SDS011;60852;52.190;4.422;2023-05-16T11:33:12;4.56;;;3.18;;
68942;SDS011;60852;52.190;4.422;2023-05-16T11:35:38;6.23;;;4.71;;
68942;SDS011;60852;52.190;4.422;2023-05-16T11:38:03;3.15;;;2.56;;
68942;SDS011;60852;52.190;4.422;2023-05-16T11:40:29;3.71;;;3.03;;
68942;SDS011;60852;52.190;4.422;2023-05-16T11:42:58;2.64;;;2.11;;
68942;SDS011;60852;52.190;4.422;2023-05-16T11:45:27;2.72;;;2.09;;
68942;SDS011;60852;52.190;4.422;2023-05-16T11:47:52;4.19;;;3.11;;
68942;SDS011;60852;52.190;4.422;2023-05-16T11:50:19;2.41;;;1.80;;
68942;SDS011;60852;52.190;4.422;2023-05-16T11:52:51;2.87;;;2.08;;
68942;SDS011;60852;52.190;4.422;2023-05-16T11:55:21;2.85;;;2.02;;
68942;SDS011;60852;52.190;4.422;2023-05-16T11:57:52;2.92;;;2.06;;
68942;SDS011;60852;52.190;4.422;2023-05-16T12:00:22;3.69;;;2.57;;
68942;SDS011;60852;52.190;4.422;2023-05-16T12:02:50;3.29;;;2.27;;
68942;SDS011;60852;52.190;4.422;2023-05-16T12:05:18;3.41;;;2.30;;
68942;SDS011;60852;52.190;4.422;2023-05-16T12:07:49;3.72;;;2.55;;
68942;SDS011;60852;52.190;4.422;2023-05-16T12:10:15;3.59;;;2.45;;
68942;SDS011;60852;52.190;4.422;2023-05-16T12:12:43;3.28;;;2.27;;
68942;SDS011;60852;52.190;4.422;2023-05-16T12:15:11;2.98;;;2.10;;
68942;SDS011;60852;52.190;4.422;2023-05-16T12:17:38;3.50;;;2.45;;
68942;SDS011;60852;52.190;4.422;2023-05-16T12:20:05;3.24;;;2.27;;
68942;SDS011;60852;52.190;4.422;2023-05-16T12:22:47;3.86;;;2.71;;
68942;SDS011;60852;52.190;4.422;2023-05-16T12:27:57;3.26;;;2.33;;
68942;SDS011;60852;52.190;4.422;2023-05-16T12:30:25;2.74;;;2.01;;
68942;SDS011;60852;52.190;4.422;2023-05-16T12:33:02;2.76;;;2.00;;
68942;SDS011;60852;52.190;4.422;2023-05-16T12:35:33;2.50;;;1.82;;
68942;SDS011;60852;52.190;4.422;2023-05-16T12:38:02;2.72;;;1.97;;
68942;SDS011;60852;52.190;4.422;2023-05-16T12:40:29;2.80;;;2.01;;
68942;SDS011;60852;52.190;4.422;2023-05-16T12:42:55;3.14;;;2.25;;
68942;SDS011;60852;52.190;4.422;2023-05-16T12:45:21;2.99;;;2.13;;
68942;SDS011;60852;52.190;4.422;2023-05-16T12:47:47;3.31;;;2.37;;
68942;SDS011;60852;52.190;4.422;2023-05-16T12:50:13;3.51;;;2.53;;
68942;SDS011;60852;52.190;4.422;2023-05-16T12:52:53;3.34;;;2.45;;
68942;SDS011;60852;52.190;4.422;2023-05-16T12:55:23;2.50;;;1.83;;
68942;SDS011;60852;52.190;4.422;2023-05-16T12:57:49;2.73;;;2.02;;
68942;SDS011;60852;52.190;4.422;2023-05-16T13:00:19;2.52;;;1.85;;
68942;SDS011;60852;52.190;4.422;2023-05-16T13:02:45;2.43;;;1.76;;
68942;SDS011;60852;52.190;4.422;2023-05-16T13:05:12;2.90;;;2.09;;
68942;SDS011;60852;52.190;4.422;2023-05-16T13:07:39;3.24;;;2.42;;
68942;SDS011;60852;52.190;4.422;2023-05-16T13:10:08;2.38;;;1.80;;
68942;SDS011;60852;52.190;4.422;2023-05-16T13:12:35;2.39;;;1.76;;
68942;SDS011;60852;52.190;4.422;2023-05-16T13:15:01;2.48;;;1.82;;
68942;SDS011;60852;52.190;4.422;2023-05-16T13:17:27;2.22;;;1.65;;
68942;SDS011;60852;52.190;4.422;2023-05-16T13:19:54;2.46;;;1.91;;
68942;SDS011;60852;52.190;4.422;2023-05-16T13:22:20;2.00;;;1.52;;
68942;SDS011;60852;52.190;4.422;2023-05-16T13:24:45;2.02;;;1.51;;
68942;SDS011;60852;52.190;4.422;2023-05-16T13:27:11;2.75;;;2.04;;
68942;SDS011;60852;52.190;4.422;2023-05-16T13:29:39;2.29;;;1.71;;
68942;SDS011;60852;52.190;4.422;2023-05-16T13:32:05;2.45;;;1.81;;
68942;SDS011;60852;52.190;4.422;2023-05-16T13:34:31;2.86;;;2.13;;
68942;SDS011;60852;52.190;4.422;2023-05-16T13:36:57;2.64;;;2.04;;
68942;SDS011;60852;52.190;4.422;2023-05-16T13:39:23;2.49;;;2.03;;
68942;SDS011;60852;52.190;4.422;2023-05-16T13:41:49;2.44;;;2.02;;
68942;SDS011;60852;52.190;4.422;2023-05-16T13:44:15;2.36;;;1.96;;
68942;SDS011;60852;52.190;4.422;2023-05-16T13:46:41;2.22;;;1.89;;
68942;SDS011;60852;52.190;4.422;2023-05-16T13:49:06;2.38;;;2.01;;
68942;SDS011;60852;52.190;4.422;2023-05-16T13:51:32;2.31;;;1.94;;
68942;SDS011;60852;52.190;4.422;2023-05-16T13:53:58;3.05;;;2.55;;
68942;SDS011;60852;52.190;4.422;2023-05-16T13:56:23;2.56;;;2.22;;
68942;SDS011;60852;52.190;4.422;2023-05-16T13:58:49;2.19;;;1.88;;
68942;SDS011;60852;52.190;4.422;2023-05-16T14:01:15;2.09;;;1.75;;
68942;SDS011;60852;52.190;4.422;2023-05-16T14:03:41;2.21;;;1.81;;
68942;SDS011;60852;52.190;4.422;2023-05-16T14:06:07;2.60;;;2.10;;
68942;SDS011;60852;52.190;4.422;2023-05-16T14:08:33;2.43;;;1.96;;
68942;SDS011;60852;52.190;4.422;2023-05-16T14:10:58;2.40;;;1.93;;
68942;SDS011;60852;52.190;4.422;2023-05-16T14:13:24;3.16;;;2.55;;
68942;SDS011;60852;52.190;4.422;2023-05-16T14:15:49;2.79;;;2.25;;
68942;SDS011;60852;52.190;4.422;2023-05-16T14:18:16;2.32;;;1.91;;
68942;SDS011;60852;52.190;4.422;2023-05-16T14:20:41;2.10;;;1.78;;
68942;SDS011;60852;52.190;4.422;2023-05-16T14:23:07;2.48;;;2.08;;
68942;SDS011;60852;52.190;4.422;2023-05-16T14:25:32;2.49;;;2.03;;
68942;SDS011;60852;52.190;4.422;2023-05-16T14:27:58;2.38;;;1.94;;
68942;SDS011;60852;52.190;4.422;2023-05-16T14:30:23;2.54;;;2.05;;
68942;SDS011;60852;52.190;4.422;2023-05-16T14:32:50;2.73;;;2.23;;
68942;SDS011;60852;52.190;4.422;2023-05-16T14:35:16;3.07;;;2.51;;
68942;SDS011;60852;52.190;4.422;2023-05-16T14:37:41;3.23;;;2.65;;
68942;SDS011;60852;52.190;4.422;2023-05-16T14:40:07;3.38;;;2.84;;
68942;SDS011;60852;52.190;4.422;2023-05-16T14:42:33;2.79;;;2.41;;
68942;SDS011;60852;52.190;4.422;2023-05-16T14:44:59;2.89;;;2.53;;
68942;SDS011;60852;52.190;4.422;2023-05-16T14:47:25;3.14;;;2.79;;
68942;SDS011;60852;52.190;4.422;2023-05-16T14:49:52;3.14;;;2.82;;
68942;SDS011;60852;52.190;4.422;2023-05-16T14:52:18;3.56;;;3.22;;
68942;SDS011;60852;52.190;4.422;2023-05-16T14:54:44;3.40;;;3.16;;
68942;SDS011;60852;52.190;4.422;2023-05-16T14:57:09;3.46;;;3.24;;
68942;SDS011;60852;52.190;4.422;2023-05-16T14:59:35;3.70;;;3.51;;
68942;SDS011;60852;52.190;4.422;2023-05-16T15:02:00;4.38;;;4.18;;